createdAt,value
2023-02-26T00:02:00.933Z,99276.10
2023-02-26T00:05:59.122Z,99284.41
2023-02-26T00:10:01.138Z,99278.41
2023-02-26T00:13:54.756Z,99287.71
2023-02-26T00:17:58.795Z,99289.17
2023-02-26T00:21:57.166Z,99284.58
2023-02-26T00:25:59.300Z,99283.05
2023-02-26T00:29:57.305Z,99294.48
2023-02-26T00:34:01.711Z,99287.65
2023-02-26T00:38:01.281Z,99292.80
2023-02-26T00:41:58.713Z,99306.91
2023-02-26T00:45:52.191Z,99314.08
2023-02-26T00:49:28.755Z,99319.33
2023-02-26T00:53:34.385Z,99311.52
2023-02-26T00:57:32.273Z,99315.75
2023-02-26T01:01:34.190Z,99336.02
2023-02-26T01:05:30.076Z,99364.90
2023-02-26T01:09:29.616Z,99363.95
2023-02-26T01:13:25.976Z,99369.37
2023-02-26T01:17:29.553Z,99378.58
2023-02-26T01:21:30.492Z,99367.70
2023-02-26T01:25:29.931Z,99373.64
2023-02-26T01:29:26.240Z,99371.98
2023-02-26T01:33:25.635Z,99370.59
2023-02-26T01:37:22.052Z,99386.17
2023-02-26T01:41:19.134Z,99406.06
2023-02-26T01:45:12.345Z,99407.04
2023-02-26T01:49:15.635Z,99412.58
2023-02-26T01:53:12.301Z,99432.10
2023-02-26T01:57:11.807Z,99444.52
2023-02-26T02:01:10.032Z,99456.63
2023-02-26T02:05:09.378Z,99453.96
2023-02-26T02:09:02.617Z,99457.71
2023-02-26T02:13:00.387Z,99457.02
2023-02-26T02:16:56.046Z,99462.09
2023-02-26T02:20:55.730Z,99466.28
2023-02-26T02:24:51.097Z,99460.48
2023-02-26T02:28:52.839Z,99465.91
2023-02-26T02:32:50.140Z,99466.33
2023-02-26T02:36:48.706Z,99478.50
2023-02-26T02:40:41.982Z,99492.16
2023-02-26T02:44:41.683Z,99500.15
2023-02-26T02:48:37.375Z,99509.13
2023-02-26T02:52:36.539Z,99508.30
2023-02-26T02:56:33.115Z,99509.80
2023-02-26T03:00:33.671Z,99513.86
2023-02-26T03:04:27.646Z,99521.02
2023-02-26T03:08:31.200Z,99522.61
2023-02-26T03:12:26.762Z,99530.44
2023-02-26T03:16:28.305Z,99527.36
2023-02-26T03:20:24.289Z,99533.98
2023-02-26T03:24:25.711Z,99527.80
2023-02-26T03:28:21.176Z,99531.55
2023-02-26T03:32:19.773Z,99539.94
2023-02-26T03:36:21.013Z,99551.39
2023-02-26T03:40:29.468Z,99560.80
2023-02-26T03:44:25.382Z,99571.88
2023-02-26T03:48:25.807Z,99581.43
2023-02-26T03:52:23.379Z,99573.97
2023-02-26T03:56:50.129Z,99581.08
2023-02-26T04:01:06.314Z,99579.30
2023-02-26T04:05:06.018Z,99588.24
2023-02-26T04:09:02.505Z,99584.48
2023-02-26T04:13:02.939Z,99591.02
2023-02-26T04:16:55.974Z,99596.44
2023-02-26T04:21:00.576Z,99585.40
2023-02-26T04:24:56.534Z,99585.71
2023-02-26T04:28:58.007Z,99581.59
2023-02-26T04:32:54.536Z,99582.79
2023-02-26T04:36:53.983Z,99589.77
2023-02-26T04:40:50.560Z,99596.01
2023-02-26T04:44:48.888Z,99606.49
2023-02-26T04:48:49.180Z,99604.49
2023-02-26T04:52:55.968Z,99620.89
2023-02-26T04:56:53.649Z,99644.42
2023-02-26T05:00:53.867Z,99649.91
2023-02-26T05:04:49.652Z,99651.05
2023-02-26T05:08:59.803Z,99669.64
2023-02-26T05:12:59.703Z,99668.69
2023-02-26T05:16:59.923Z,99675.02
2023-02-26T05:20:57.016Z,99678.45
2023-02-26T05:24:57.236Z,99683.02
2023-02-26T05:28:50.654Z,99685.08
2023-02-26T05:32:50.162Z,99698.02
2023-02-26T05:36:46.716Z,99694.10
2023-02-26T05:40:48.291Z,99707.69
2023-02-26T05:44:44.684Z,99712.58
2023-02-26T05:48:45.905Z,99712.48
2023-02-26T05:52:43.619Z,99715.02
2023-02-26T05:56:43.161Z,99728.17
2023-02-26T06:00:38.511Z,99735.36
2023-02-26T06:04:37.833Z,99743.23
2023-02-26T06:08:33.854Z,99751.18
2023-02-26T06:12:33.515Z,99759.57
2023-02-26T06:16:27.271Z,99768.63
2023-02-26T06:20:28.108Z,99775.80
2023-02-26T06:24:23.904Z,99783.54
2023-02-26T06:28:22.804Z,99788.32
2023-02-26T06:32:28.932Z,99798.10
2023-02-26T06:36:30.802Z,99803.80
2023-02-26T06:40:26.691Z,99811.46
2023-02-26T06:44:27.330Z,99813.02
2023-02-26T06:48:23.770Z,99816.55
2023-02-26T06:52:21.618Z,99818.56
2023-02-26T06:56:15.368Z,99824.36
2023-02-26T07:00:16.562Z,99831.12
2023-02-26T07:04:12.692Z,99841.84
2023-02-26T07:08:15.055Z,99846.20
2023-02-26T07:12:21.941Z,99849.55
2023-02-26T07:16:21.795Z,99861.65
2023-02-26T07:20:26.077Z,99865.31
2023-02-26T07:24:29.418Z,99874.83
2023-02-26T07:28:31.666Z,99875.31
2023-02-26T07:32:35.858Z,99882.38
2023-02-26T07:36:39.090Z,99881.83
2023-02-26T07:40:52.757Z,99882.63
2023-02-26T07:44:59.594Z,99882.06
2023-02-26T07:48:55.746Z,99882.44
2023-02-26T07:52:56.373Z,99887.57
2023-02-26T07:56:58.969Z,99885.25
2023-02-26T08:05:34.074Z,99899.23
2023-02-26T08:09:36.471Z,99905.00
2023-02-26T08:13:49.182Z,99918.38
2023-02-26T08:17:53.322Z,99922.88
2023-02-26T08:22:15.170Z,99927.32
2023-02-26T08:26:22.728Z,99937.17
2023-02-26T08:30:39.908Z,99940.48
2023-02-26T08:34:42.513Z,99942.98
2023-02-26T08:39:05.326Z,99940.27
2023-02-26T08:43:09.485Z,99936.88
2023-02-26T08:52:42.631Z,99941.02
2023-02-26T09:00:12.749Z,99938.35
2023-02-26T09:00:27.598Z,99953.48
2023-02-26T09:01:54.057Z,99962.59
2023-02-26T09:05:55.999Z,99968.62
2023-02-26T09:09:57.688Z,99972.73
2023-02-26T09:13:57.972Z,99979.80
2023-02-26T09:18:04.636Z,99984.84
2023-02-26T09:22:01.083Z,99984.04
2023-02-26T09:25:58.901Z,99991.09
2023-02-26T09:29:58.310Z,99997.61
2023-02-26T09:33:54.158Z,99999.36
2023-02-26T09:37:53.963Z,99998.92
2023-02-26T09:41:50.043Z,100003.77
2023-02-26T09:45:49.534Z,100003.80
2023-02-26T09:49:46.232Z,100007.91
2023-02-26T09:53:46.467Z,100005.46
2023-02-26T09:57:42.992Z,100010.87
2023-02-26T10:01:42.119Z,100017.03
2023-02-26T10:05:38.077Z,100018.69
2023-02-26T10:09:39.628Z,100023.98
2023-02-26T10:13:38.512Z,100025.56
2023-02-26T10:17:41.370Z,100023.65
2023-02-26T10:21:39.038Z,100027.45
2023-02-26T10:25:41.852Z,100033.23
2023-02-26T10:29:38.015Z,100034.58
2023-02-26T10:33:39.033Z,100044.63
2023-02-26T10:37:35.153Z,100051.10
2023-02-26T10:41:34.132Z,100054.62
2023-02-26T10:45:30.321Z,100064.05
2023-02-26T10:49:30.069Z,100067.90
2023-02-26T10:53:23.720Z,100071.77
2023-02-26T10:57:23.037Z,100069.92
2023-02-26T11:01:16.488Z,100074.09
2023-02-26T11:05:16.185Z,100080.73
2023-02-26T11:09:11.161Z,100078.13
2023-02-26T11:13:10.353Z,100084.70
2023-02-26T11:17:05.711Z,100086.46
2023-02-26T11:21:05.255Z,100092.34
2023-02-26T11:25:05.911Z,100089.60
2023-02-26T11:29:05.425Z,100092.19
2023-02-26T11:33:01.231Z,100093.64
2023-02-26T11:37:01.353Z,100099.58
2023-02-26T11:40:57.213Z,100100.73
2023-02-26T11:44:57.103Z,100102.86
2023-02-26T11:48:53.244Z,100112.38
2023-02-26T11:52:55.233Z,100118.77
2023-02-26T11:56:51.456Z,100123.66
2023-02-26T12:00:54.187Z,100124.84
2023-02-26T12:04:52.384Z,100123.52
2023-02-26T12:08:56.341Z,100124.13
2023-02-26T12:12:52.286Z,100127.86
2023-02-26T12:16:44.193Z,100132.83
2023-02-26T12:20:31.064Z,100138.41
2023-02-26T12:24:19.215Z,100145.77
2023-02-26T12:28:04.112Z,100147.33
2023-02-26T12:31:49.680Z,100151.44
2023-02-26T12:35:35.341Z,100149.89
2023-02-26T12:39:20.694Z,100155.27
2023-02-26T12:43:11.965Z,100152.13
2023-02-26T12:47:03.335Z,100158.15
2023-02-26T12:50:56.641Z,100160.98
2023-02-26T12:54:54.530Z,100171.48
2023-02-26T12:58:51.211Z,100176.45
2023-02-26T13:02:52.444Z,100181.80
2023-02-26T13:06:50.422Z,100183.96
2023-02-26T13:10:50.440Z,100182.16
2023-02-26T13:14:48.537Z,100187.44
2023-02-26T13:18:50.450Z,100187.91
2023-02-26T13:22:48.575Z,100193.92
2023-02-26T13:26:50.406Z,100193.44
2023-02-26T13:30:48.454Z,100202.20
2023-02-26T13:34:39.092Z,100199.64
2023-02-26T13:38:24.206Z,100199.27
2023-02-26T13:42:12.993Z,100204.02
2023-02-26T13:45:58.415Z,100201.73
2023-02-26T13:49:44.320Z,100204.94
2023-02-26T13:53:29.979Z,100211.79
2023-02-26T13:57:15.952Z,100217.92
2023-02-26T14:01:01.210Z,100223.16
2023-02-26T14:04:54.016Z,100231.73
2023-02-26T14:08:39.470Z,100232.04
2023-02-26T14:12:29.279Z,100238.39
2023-02-26T14:16:20.446Z,100240.84
2023-02-26T14:20:06.073Z,100251.90
2023-02-26T14:23:51.464Z,100258.77
2023-02-26T14:27:42.573Z,100264.86
2023-02-26T14:31:34.776Z,100264.87
2023-02-26T14:35:35.035Z,100271.07
2023-02-26T14:39:37.190Z,100271.19
2023-02-26T14:43:39.548Z,100280.11
2023-02-26T14:47:41.683Z,100289.38
2023-02-26T14:51:39.656Z,100297.63
2023-02-26T14:55:41.596Z,100306.83
2023-02-26T14:59:37.406Z,100309.60
2023-02-26T15:03:25.668Z,100307.55
2023-02-26T15:07:07.684Z,100313.40
2023-02-26T15:10:45.437Z,100320.42
2023-02-26T15:14:20.469Z,100323.34
2023-02-26T15:17:56.991Z,100333.46
2023-02-26T15:21:35.018Z,100336.08
2023-02-26T15:25:19.873Z,100341.71
2023-02-26T15:28:48.676Z,100346.05
2023-02-26T15:32:25.323Z,100351.20
2023-02-26T15:35:58.752Z,100349.53
2023-02-26T15:39:35.194Z,100359.56
2023-02-26T15:43:08.024Z,100365.96
2023-02-26T15:46:45.336Z,100370.59
2023-02-26T15:50:17.848Z,100376.64
2023-02-26T15:53:55.023Z,100383.86
2023-02-26T15:57:27.827Z,100385.45
2023-02-26T16:01:04.479Z,100389.52
2023-02-26T16:04:39.588Z,100390.92
2023-02-26T16:08:19.739Z,100399.46
2023-02-26T16:11:58.709Z,100400.84
2023-02-26T16:15:43.742Z,100401.42
2023-02-26T16:19:21.899Z,100406.84
2023-02-26T16:23:04.240Z,100411.98
2023-02-26T16:26:41.760Z,100418.09
2023-02-26T16:30:22.727Z,100424.29
2023-02-26T16:34:00.863Z,100422.51
2023-02-26T16:37:41.808Z,100424.56
2023-02-26T16:41:18.748Z,100424.75
2023-02-26T16:44:59.636Z,100430.49
2023-02-26T16:48:41.758Z,100437.59
2023-02-26T16:52:22.719Z,100446.21
2023-02-26T16:56:00.794Z,100451.23
2023-02-26T16:59:42.762Z,100456.79
2023-02-26T17:03:20.009Z,100463.54
2023-02-26T17:07:01.715Z,100465.62
2023-02-26T17:10:39.943Z,100466.91
2023-02-26T17:14:21.267Z,100467.48
2023-02-26T17:17:58.881Z,100472.70
2023-02-26T17:21:39.082Z,100479.64
2023-02-26T17:25:21.816Z,100484.22
2023-02-26T17:28:59.767Z,100484.83
2023-02-26T17:32:43.941Z,100486.09
2023-02-26T17:36:21.747Z,100485.59
2023-02-26T17:40:03.395Z,100488.80
2023-02-26T17:43:44.778Z,100495.19
2023-02-26T17:47:25.902Z,100498.98
2023-02-26T17:51:03.941Z,100507.20
2023-02-26T17:54:45.389Z,100511.52
2023-02-26T17:58:24.326Z,100510.70
2023-02-26T18:02:04.453Z,100520.84
2023-02-26T18:05:40.518Z,100526.32
2023-02-26T18:09:19.120Z,100527.89
2023-02-26T18:12:54.803Z,100528.83
2023-02-26T18:16:33.654Z,100541.19
2023-02-26T18:20:09.830Z,100533.42
2023-02-26T18:23:48.691Z,100535.89
2023-02-26T18:27:23.962Z,100535.23
2023-02-26T18:31:03.002Z,100537.86
2023-02-26T18:34:40.668Z,100543.55
2023-02-26T18:38:19.854Z,100546.23
2023-02-26T18:41:54.691Z,100552.86
2023-02-26T18:45:34.082Z,100553.58
2023-02-26T18:49:10.077Z,100550.11
2023-02-26T18:52:49.158Z,100553.52
2023-02-26T18:56:24.902Z,100562.59
2023-02-26T19:00:03.791Z,100569.63
2023-02-26T19:03:40.265Z,100578.25
2023-02-26T19:07:19.388Z,100584.23
2023-02-26T19:10:55.196Z,100593.52
2023-02-26T19:14:40.641Z,100583.90
2023-02-26T19:18:16.099Z,100589.03
2023-02-26T19:21:54.684Z,100592.92
2023-02-26T19:25:34.661Z,100592.62
2023-02-26T19:29:12.917Z,100592.77
2023-02-26T19:32:48.852Z,100600.25
2023-02-26T19:36:27.743Z,100599.55
2023-02-26T19:40:03.050Z,100607.39
2023-02-26T19:43:42.602Z,100603.11
2023-02-26T19:47:17.998Z,100608.30
2023-02-26T19:50:57.035Z,100615.52
2023-02-26T19:54:32.969Z,100622.24
2023-02-26T19:58:12.050Z,100631.27
2023-02-26T20:01:48.080Z,100632.17
2023-02-26T20:05:25.778Z,100634.52
2023-02-26T20:09:05.081Z,100638.07
2023-02-26T20:12:41.022Z,100644.98
2023-02-26T20:16:20.497Z,100648.55
2023-02-26T20:19:56.083Z,100653.96
2023-02-26T20:23:36.153Z,100655.27
2023-02-26T20:27:12.306Z,100663.66
2023-02-26T20:30:51.555Z,100663.91
2023-02-26T20:34:27.140Z,100671.77
2023-02-26T20:38:05.822Z,100675.17
2023-02-26T20:41:42.746Z,100678.98
2023-02-26T20:45:22.160Z,100681.27
2023-02-26T20:48:57.756Z,100682.73
2023-02-26T20:52:36.578Z,100680.46
2023-02-26T20:56:11.903Z,100673.95
2023-02-26T20:59:51.082Z,100668.48
2023-02-26T21:03:27.112Z,100673.83
2023-02-26T21:07:06.559Z,100674.84
2023-02-26T21:10:42.933Z,100675.48
2023-02-26T21:14:22.711Z,100677.59
2023-02-26T21:17:57.700Z,100685.00
2023-02-26T21:21:29.385Z,100690.71
2023-02-26T21:25:06.202Z,100694.92
2023-02-26T21:28:45.967Z,100706.09
2023-02-26T21:32:21.278Z,100702.61
2023-02-26T21:35:53.217Z,100707.80
2023-02-26T21:39:27.850Z,100703.35
2023-02-26T21:42:59.303Z,100707.99
2023-02-26T21:46:23.929Z,100703.13
2023-02-26T21:49:48.539Z,100705.70
2023-02-26T21:53:22.360Z,100710.30
2023-02-26T21:56:59.941Z,100715.49
2023-02-26T22:00:34.753Z,100723.59
2023-02-26T22:04:12.213Z,100722.57
2023-02-26T22:07:49.042Z,100730.88
2023-02-26T22:11:29.367Z,100733.58
2023-02-26T22:15:10.643Z,100734.45
2023-02-26T22:18:44.901Z,100720.94
2023-02-26T22:22:17.787Z,100725.92
2023-02-26T22:25:50.350Z,100737.98
2023-02-26T22:29:15.343Z,100748.76
2023-02-26T22:32:39.710Z,100763.30
2023-02-26T22:36:12.624Z,100765.25
2023-02-26T22:39:49.815Z,100775.88
2023-02-26T22:43:25.341Z,100783.39
2023-02-26T22:47:02.766Z,100784.41
2023-02-26T22:50:38.381Z,100780.11
2023-02-26T22:54:16.004Z,100780.46
2023-02-26T22:57:51.102Z,100775.08
2023-02-26T23:01:28.924Z,100766.63
2023-02-26T23:05:04.300Z,100769.67
2023-02-26T23:08:43.365Z,100760.20
2023-02-26T23:12:18.828Z,100767.56
2023-02-26T23:15:56.368Z,100775.01
2023-02-26T23:19:32.432Z,100772.23
2023-02-26T23:23:10.317Z,100776.77
2023-02-26T23:26:45.253Z,100778.13
2023-02-26T23:30:27.384Z,100781.73
2023-02-26T23:34:03.169Z,100788.77
2023-02-26T23:37:43.087Z,100792.79
2023-02-26T23:41:18.169Z,100805.36
2023-02-26T23:44:56.060Z,100814.45
2023-02-26T23:48:31.399Z,100809.56
2023-02-26T23:52:15.075Z,100807.15
2023-02-26T23:55:47.931Z,100815.76
2023-02-26T23:59:04.311Z,100819.98
